Time;durP1;ratioP1;P1;durP2;ratioP2;P2;SDS_P1;SDS_P2;PMS_P1;PMS_P2;Temp;Humidity;BMP_temperature;BMP_pressure;BME280_temperature;BME280_humidity;BME280_pressure;Samples;Min_cycle;Max_cycle;Signal;HPM_P1;HPM_P2
2020/12/10 06:11:42;;;;;;;29.33;25.60;;;3.00;99.90;;;;;;4888502;29;20482;-90
2020/12/10 06:14:10;;;;;;;26.33;22.00;;;3.00;99.90;;;;;;4907806;29;20863;-87
2020/12/10 06:16:41;;;;;;;30.07;25.17;;;3.10;99.90;;;;;;4924278;29;20481;-87
2020/12/10 06:19:14;;;;;;;36.23;27.73;;;3.10;99.90;;;;;;4924603;29;20525;-87
2020/12/10 06:22:06;;;;;;;;;;;;;;;;;;;;;
2020/12/10 06:24:36;;;;;;;27.93;25.03;;;3.30;99.90;;;;;;4925573;29;20453;-86
2020/12/10 06:27:25;;;;;;;32.90;26.60;;;3.40;99.90;;;;;;4925160;29;20452;-85
2020/12/10 06:30:10;;;;;;;27.20;24.30;;;3.30;99.90;;;;;;4923743;29;20819;-85
2020/12/10 06:32:41;;;;;;;30.57;24.77;;;3.30;99.90;;;;;;4925112;29;20457;-85
2020/12/10 06:35:24;;;;;;;28.27;25.00;;;3.20;99.90;;;;;;4943902;29;20441;-83
2020/12/10 06:37:50;;;;;;;30.37;25.93;;;3.30;99.90;;;;;;4936830;29;20488;-86
2020/12/10 06:40:32;;;;;;;31.10;26.03;;;3.20;99.90;;;;;;4927972;29;20457;-85
2020/12/10 06:42:58;;;;;;;31.50;25.63;;;3.20;99.90;;;;;;4922685;29;20825;-81
2020/12/10 06:45:26;;;;;;;30.63;24.90;;;3.30;99.90;;;;;;4924477;29;20457;-82
2020/12/10 06:47:53;;;;;;;30.70;24.50;;;3.40;99.90;;;;;;4923807;29;20446;-83
2020/12/10 06:50:24;;;;;;;29.73;23.53;;;3.40;99.90;;;;;;4923062;29;20457;-82
2020/12/10 06:53:18;;;;;;;34.20;25.80;;;3.30;99.90;;;;;;4922914;29;20944;-81
2020/12/10 06:56:04;;;;;;;32.80;26.23;;;3.40;99.90;;;;;;4924433;29;20445;-83
2020/12/10 06:58:50;;;;;;;28.27;25.30;;;3.50;99.90;;;;;;4922804;29;20829;-83
2020/12/10 07:01:26;;;;;;;28.67;23.87;;;3.30;99.90;;;;;;4924286;29;20454;-83
2020/12/10 07:03:55;;;;;;;37.03;26.20;;;3.40;99.90;;;;;;4931671;29;20446;-89
2020/12/10 07:06:21;;;;;;;29.20;25.00;;;3.40;99.90;;;;;;4951190;28;20470;-89
2020/12/10 07:09:02;;;;;;;30.00;24.73;;;3.30;99.90;;;;;;4941086;28;20441;-84
2020/12/10 07:11:36;;;;;;;33.63;23.77;;;3.40;99.90;;;;;;4927452;29;20491;-79
2020/12/10 07:14:21;;;;;;;28.43;24.20;;;3.50;99.90;;;;;;4922142;29;20465;-78
2020/12/10 07:16:48;;;;;;;30.00;25.30;;;3.50;99.90;;;;;;4923850;29;20498;-87
2020/12/10 07:19:14;;;;;;;30.70;24.40;;;3.50;99.90;;;;;;4927849;29;20453;-87
2020/12/10 07:21:40;;;;;;;31.70;26.50;;;3.60;99.90;;;;;;4927029;29;20477;-86
2020/12/10 07:24:07;;;;;;;31.80;22.73;;;3.60;99.90;;;;;;4927646;29;20449;-87
2020/12/10 07:26:33;;;;;;;25.43;22.37;;;3.70;99.90;;;;;;4925609;29;20513;-88
2020/12/10 07:29:00;;;;;;;23.83;21.30;;;3.70;99.90;;;;;;4925832;29;20449;-87
2020/12/10 07:31:26;;;;;;;24.33;21.40;;;3.60;99.90;;;;;;4927031;29;20538;-84
2020/12/10 07:33:56;;;;;;;28.33;23.47;;;3.60;99.90;;;;;;4932133;29;20457;-83
2020/12/10 07:36:22;;;;;;;27.43;24.43;;;3.70;99.90;;;;;;4942243;29;20492;-84
2020/12/10 07:38:48;;;;;;;25.77;22.30;;;3.80;99.90;;;;;;4936822;29;20457;-82
2020/12/10 07:41:15;;;;;;;26.10;21.33;;;3.80;99.90;;;;;;4923550;29;20458;-81
2020/12/10 07:43:46;;;;;;;25.60;22.90;;;3.90;99.90;;;;;;4923487;29;20448;-78
2020/12/10 07:46:12;;;;;;;26.07;23.07;;;3.90;99.90;;;;;;4923400;29;20594;-79
2020/12/10 07:48:39;;;;;;;24.33;21.90;;;3.90;99.90;;;;;;4921324;29;20485;-78
2020/12/10 07:51:06;;;;;;;22.30;20.00;;;3.80;99.90;;;;;;4921499;29;20450;-79
2020/12/10 07:53:33;;;;;;;26.03;19.17;;;3.70;99.90;;;;;;4922893;29;20449;-78
2020/12/10 07:56:01;;;;;;;22.27;18.77;;;3.70;99.90;;;;;;4923330;29;20454;-77
2020/12/10 07:58:49;;;;;;;24.20;21.07;;;3.60;99.90;;;;;;4920989;29;20446;-78
2020/12/10 08:01:15;;;;;;;29.27;22.13;;;3.70;99.90;;;;;;4923797;29;20445;-77
2020/12/10 08:03:50;;;;;;;26.90;24.10;;;3.50;99.90;;;;;;4921216;29;20527;-77
2020/12/10 08:06:18;;;;;;;24.40;21.57;;;3.50;99.90;;;;;;4923720;29;20445;-77
2020/12/10 08:08:47;;;;;;;27.73;23.53;;;3.50;99.90;;;;;;4924588;29;20574;-77
2020/12/10 08:11:16;;;;;;;26.40;22.67;;;3.60;99.90;;;;;;4924670;29;20473;-76
2020/12/10 08:14:00;;;;;;;28.03;22.43;;;3.50;99.90;;;;;;4926513;29;20539;-76
2020/12/10 08:16:37;;;;;;;24.23;21.83;;;3.60;99.90;;;;;;4924202;29;21081;-76
2020/12/10 08:19:12;;;;;;;24.53;21.90;;;3.60;99.90;;;;;;4924885;29;20484;-76
2020/12/10 08:21:39;;;;;;;22.50;20.67;;;3.60;99.90;;;;;;4923974;29;20455;-78
2020/12/10 08:24:05;;;;;;;20.73;18.60;;;3.50;99.90;;;;;;4926156;29;20955;-77
2020/12/10 08:26:31;;;;;;;21.67;19.37;;;3.60;99.90;;;;;;4923161;29;20508;-78
2020/12/10 08:28:57;;;;;;;21.70;19.07;;;3.70;99.90;;;;;;4925730;29;20450;-77
2020/12/10 08:31:25;;;;;;;23.67;20.20;;;3.60;99.90;;;;;;4924014;29;20446;-78
2020/12/10 08:33:52;;;;;;;22.63;20.00;;;3.70;99.90;;;;;;4926471;29;20484;-78
2020/12/10 08:36:26;;;;;;;22.80;20.60;;;3.70;99.90;;;;;;4923816;29;20508;-77
2020/12/10 08:38:54;;;;;;;22.97;20.73;;;3.80;99.90;;;;;;4925034;29;20464;-77
2020/12/10 08:41:25;;;;;;;21.53;19.23;;;3.80;99.90;;;;;;4924956;29;20442;-77
2020/12/10 08:43:56;;;;;;;22.47;20.20;;;4.00;99.90;;;;;;4925779;29;20457;-77
2020/12/10 08:46:23;;;;;;;22.60;20.60;;;3.90;99.90;;;;;;4925697;29;20789;-78
2020/12/10 08:48:49;;;;;;;22.80;19.53;;;3.80;99.90;;;;;;4923135;29;20446;-77
2020/12/10 08:51:15;;;;;;;23.57;21.03;;;3.90;99.90;;;;;;4925322;29;20484;-77
2020/12/10 08:53:49;;;;;;;21.23;19.00;;;3.90;99.90;;;;;;4923461;29;20453;-77
2020/12/10 08:56:24;;;;;;;26.77;21.93;;;3.80;99.90;;;;;;4923968;29;21018;-77
2020/12/10 08:58:50;;;;;;;24.33;21.53;;;3.80;99.90;;;;;;4923784;29;20539;-77
2020/12/10 09:01:16;;;;;;;22.97;20.47;;;4.10;99.90;;;;;;4925490;29;20661;-78
2020/12/10 09:03:42;;;;;;;20.97;18.97;;;4.00;99.90;;;;;;4924102;29;20853;-78
2020/12/10 09:06:09;;;;;;;23.00;20.83;;;4.00;99.90;;;;;;4924288;29;20462;-77
2020/12/10 09:08:35;;;;;;;23.20;20.83;;;3.80;99.90;;;;;;4924359;29;20461;-78
2020/12/10 09:11:01;;;;;;;21.70;19.50;;;3.70;99.90;;;;;;4925535;29;20480;-79
2020/12/10 09:13:28;;;;;;;22.70;20.50;;;3.80;99.90;;;;;;4923830;29;20497;-78
2020/12/10 09:15:55;;;;;;;21.67;19.43;;;4.10;99.90;;;;;;4924091;29;20449;-78
2020/12/10 09:18:21;;;;;;;22.83;20.43;;;4.40;99.90;;;;;;4924559;29;20839;-78
2020/12/10 09:20:47;;;;;;;20.77;18.87;;;4.50;99.90;;;;;;4923533;29;20450;-79
2020/12/10 09:23:13;;;;;;;20.00;18.10;;;4.60;99.90;;;;;;4923841;29;20509;-78
2020/12/10 09:25:40;;;;;;;18.57;16.67;;;4.60;99.90;;;;;;4927237;29;20465;-77
2020/12/10 09:28:08;;;;;;;21.40;19.50;;;4.70;99.90;;;;;;4930623;29;20446;-78
2020/12/10 09:30:35;;;;;;;18.37;16.77;;;5.00;99.90;;;;;;4926468;29;20461;-79
2020/12/10 09:33:03;;;;;;;18.10;16.40;;;5.10;99.90;;;;;;4924950;29;20457;-78
2020/12/10 09:35:29;;;;;;;18.20;16.50;;;5.20;99.90;;;;;;4923292;29;20852;-78
2020/12/10 09:37:55;;;;;;;18.63;17.00;;;5.20;99.90;;;;;;4924743;29;20485;-78
2020/12/10 09:40:22;;;;;;;18.23;16.63;;;5.20;99.90;;;;;;4924870;29;20524;-80
2020/12/10 09:42:49;;;;;;;18.70;17.20;;;5.40;99.90;;;;;;4923253;29;20967;-77
2020/12/10 09:45:16;;;;;;;19.03;17.33;;;5.60;99.90;;;;;;4926805;29;20915;-77
2020/12/10 09:47:45;;;;;;;18.37;16.90;;;5.70;99.90;;;;;;4926147;29;20438;-79
2020/12/10 09:50:19;;;;;;;16.17;14.90;;;5.50;99.90;;;;;;4924825;29;20450;-80
2020/12/10 09:52:53;;;;;;;17.73;16.20;;;5.40;99.90;;;;;;4923319;29;20461;-79
2020/12/10 09:55:35;;;;;;;17.30;15.80;;;5.30;99.90;;;;;;4922824;29;20479;-76
2020/12/10 09:58:01;;;;;;;16.30;15.00;;;5.30;99.90;;;;;;4924359;29;21026;-77
2020/12/10 10:00:27;;;;;;;17.03;15.73;;;5.30;99.90;;;;;;4922756;29;20525;-78
2020/12/10 10:02:54;;;;;;;15.33;14.33;;;5.50;99.90;;;;;;4923435;29;20221;-81
2020/12/10 10:05:20;;;;;;;16.73;15.53;;;5.40;99.90;;;;;;4924424;29;20462;-78
2020/12/10 10:07:47;;;;;;;16.70;15.43;;;5.50;99.90;;;;;;4922962;29;20452;-78
2020/12/10 10:10:13;;;;;;;15.37;14.17;;;5.40;99.90;;;;;;4922677;29;20484;-78
2020/12/10 10:12:39;;;;;;;16.40;15.20;;;5.50;99.90;;;;;;4924419;29;20504;-78
2020/12/10 10:15:05;;;;;;;17.20;15.87;;;5.30;99.90;;;;;;4922676;29;20464;-78
2020/12/10 10:17:32;;;;;;;17.10;15.70;;;5.40;99.90;;;;;;4924355;29;20489;-79
2020/12/10 10:19:59;;;;;;;18.13;16.63;;;5.60;99.90;;;;;;4922902;29;20504;-79
2020/12/10 10:22:26;;;;;;;17.27;15.80;;;5.70;99.90;;;;;;4922934;29;20524;-79
2020/12/10 10:24:52;;;;;;;18.17;16.47;;;5.60;99.90;;;;;;4924348;29;20559;-79
2020/12/10 10:27:18;;;;;;;16.20;14.90;;;5.50;99.90;;;;;;4924036;29;21060;-80
2020/12/10 10:29:44;;;;;;;17.37;15.93;;;5.30;99.90;;;;;;4921880;29;20486;-79
2020/12/10 10:32:11;;;;;;;16.40;15.10;;;5.10;99.90;;;;;;4923848;29;20454;-80
2020/12/10 10:34:37;;;;;;;17.27;15.97;;;5.10;99.90;;;;;;4922763;29;20460;-79
2020/12/10 10:37:04;;;;;;;18.73;17.27;;;5.20;99.90;;;;;;4922564;29;20857;-80
2020/12/10 10:39:30;;;;;;;17.57;15.97;;;5.30;99.90;;;;;;4924323;29;20545;-79
2020/12/10 10:41:56;;;;;;;18.10;16.60;;;5.30;99.90;;;;;;4924384;29;20877;-78
2020/12/10 10:44:23;;;;;;;19.13;17.50;;;5.00;99.90;;;;;;4922644;29;20449;-79
2020/12/10 10:46:49;;;;;;;18.37;16.63;;;4.80;99.90;;;;;;4922563;29;20512;-79
2020/12/10 10:49:17;;;;;;;19.80;17.77;;;4.90;99.90;;;;;;4923961;29;20462;-78
2020/12/10 10:51:46;;;;;;;19.47;17.87;;;5.20;99.90;;;;;;4921855;29;20532;-80
2020/12/10 10:54:14;;;;;;;20.80;19.00;;;5.10;99.90;;;;;;4921816;29;20457;-79
2020/12/10 10:56:40;;;;;;;23.37;21.07;;;4.90;99.90;;;;;;4923627;29;20496;-78
2020/12/10 10:59:07;;;;;;;23.23;21.07;;;4.80;99.90;;;;;;4922155;29;20799;-78
2020/12/10 11:01:33;;;;;;;20.13;17.87;;;4.90;99.90;;;;;;4921706;29;20450;-78
2020/12/10 11:03:59;;;;;;;21.60;19.27;;;5.00;99.90;;;;;;4923362;29;20477;-79
2020/12/10 11:06:25;;;;;;;22.37;20.03;;;5.00;99.90;;;;;;4921481;29;20470;-78
2020/12/10 11:08:52;;;;;;;22.30;19.03;;;4.70;99.90;;;;;;4921538;29;20450;-78
2020/12/10 11:11:19;;;;;;;21.20;19.00;;;4.70;99.90;;;;;;4922978;29;20477;-78
2020/12/10 11:13:45;;;;;;;23.23;20.93;;;4.80;99.90;;;;;;4921615;29;20840;-78
2020/12/10 11:16:12;;;;;;;23.10;20.90;;;4.60;99.90;;;;;;4923173;29;20814;-78
2020/12/10 11:18:39;;;;;;;23.23;20.90;;;4.40;99.90;;;;;;4923654;29;20496;-78
2020/12/10 11:21:05;;;;;;;24.00;21.50;;;4.50;99.90;;;;;;4921668;29;20460;-78
2020/12/10 11:23:32;;;;;;;24.40;21.50;;;4.60;99.90;;;;;;4923280;29;20860;-77
2020/12/10 11:25:58;;;;;;;24.40;21.10;;;4.50;99.90;;;;;;4921438;29;20450;-77
2020/12/10 11:28:25;;;;;;;22.87;20.57;;;4.70;99.90;;;;;;4921765;29;20454;-77
2020/12/10 11:30:52;;;;;;;22.70;20.30;;;4.80;99.90;;;;;;4923246;29;20445;-78
2020/12/10 11:33:18;;;;;;;27.27;22.17;;;4.90;99.90;;;;;;4921378;29;20453;-77
2020/12/10 11:35:44;;;;;;;22.93;20.50;;;5.10;99.90;;;;;;4921274;29;20453;-78
2020/12/10 11:38:11;;;;;;;22.60;20.40;;;5.20;99.90;;;;;;4922963;29;20999;-77
2020/12/10 11:40:37;;;;;;;24.20;21.70;;;5.40;99.90;;;;;;4922176;29;20457;-78
2020/12/10 11:43:03;;;;;;;22.30;19.93;;;5.40;99.90;;;;;;4927087;29;20820;-78
2020/12/10 11:45:30;;;;;;;24.33;21.80;;;5.40;99.90;;;;;;4925413;29;21003;-78
2020/12/10 11:47:58;;;;;;;23.93;21.50;;;5.30;99.90;;;;;;4925367;29;20441;-77
2020/12/10 11:50:24;;;;;;;24.90;21.97;;;5.30;99.90;;;;;;4926345;29;20867;-78
2020/12/10 11:52:52;;;;;;;21.67;19.57;;;5.30;99.90;;;;;;4926915;29;20449;-78
2020/12/10 11:55:21;;;;;;;24.73;22.27;;;5.30;99.90;;;;;;4925221;29;20791;-78
2020/12/10 11:57:47;;;;;;;22.10;20.00;;;5.40;99.90;;;;;;4924999;29;20497;-77
2020/12/10 12:00:13;;;;;;;24.33;21.93;;;5.40;99.90;;;;;;4926486;29;20456;-79
2020/12/10 12:02:40;;;;;;;21.43;19.50;;;5.50;99.90;;;;;;4925145;29;20454;-77
2020/12/10 12:05:07;;;;;;;24.07;21.53;;;5.70;99.90;;;;;;4925366;29;20473;-77
2020/12/10 12:07:33;;;;;;;23.13;20.80;;;5.70;99.90;;;;;;4926586;29;20444;-76
2020/12/10 12:10:02;;;;;;;24.23;21.83;;;5.70;99.90;;;;;;4925942;29;20504;-77
2020/12/10 12:12:28;;;;;;;23.13;20.73;;;5.80;99.90;;;;;;4932219;29;20501;-77
2020/12/10 12:14:55;;;;;;;25.13;22.50;;;5.70;99.90;;;;;;4928749;29;20489;-76
2020/12/10 12:17:21;;;;;;;26.07;23.33;;;5.80;99.90;;;;;;4925070;29;20841;-77
2020/12/10 12:19:48;;;;;;;25.77;23.07;;;5.90;99.90;;;;;;4924379;29;20928;-77
2020/12/10 12:22:14;;;;;;;25.07;22.37;;;5.90;99.90;;;;;;4925800;29;20871;-76
2020/12/10 12:24:40;;;;;;;24.97;22.17;;;5.80;99.90;;;;;;4924497;29;20448;-76
2020/12/10 12:27:07;;;;;;;22.80;20.70;;;5.80;99.90;;;;;;4926144;29;21535;-77
2020/12/10 12:29:35;;;;;;;24.20;21.60;;;5.90;99.90;;;;;;4924473;29;20524;-77
2020/12/10 12:32:08;;;;;;;24.93;22.17;;;6.10;99.90;;;;;;4924407;29;20528;-78
2020/12/10 12:34:34;;;;;;;23.90;21.40;;;6.10;99.90;;;;;;4924476;29;20437;-78
2020/12/10 12:37:01;;;;;;;22.80;20.80;;;6.00;99.90;;;;;;4924305;29;20544;-79
2020/12/10 12:39:28;;;;;;;26.33;23.60;;;6.10;99.90;;;;;;4925763;29;20452;-78
2020/12/10 12:41:54;;;;;;;23.40;21.20;;;6.20;99.90;;;;;;4924810;29;20445;-77
2020/12/10 12:44:20;;;;;;;24.80;22.27;;;6.20;99.90;;;;;;4926320;29;20444;-79
2020/12/10 12:46:50;;;;;;;21.23;19.40;;;6.00;99.90;;;;;;4924428;29;20457;-78
2020/12/10 12:49:17;;;;;;;22.20;19.97;;;5.90;99.90;;;;;;4924446;29;20454;-78
2020/12/10 12:51:43;;;;;;;23.27;20.90;;;5.80;99.90;;;;;;4923897;29;20454;-79
2020/12/10 12:54:10;;;;;;;22.27;20.13;;;5.70;99.90;;;;;;4926152;29;20457;-78
2020/12/10 12:56:36;;;;;;;22.97;20.53;;;5.60;99.90;;;;;;4924439;29;20453;-78
2020/12/10 12:59:03;;;;;;;25.37;22.97;;;5.60;99.90;;;;;;4925895;29;20517;-79
2020/12/10 13:01:36;;;;;;;25.23;22.57;;;5.50;99.90;;;;;;4925796;29;20609;-78
2020/12/10 13:04:02;;;;;;;25.23;22.63;;;5.60;99.90;;;;;;4925834;29;20441;-79
2020/12/10 13:06:28;;;;;;;23.00;20.90;;;5.50;99.90;;;;;;4924054;29;20481;-77
2020/12/10 13:08:54;;;;;;;22.97;20.77;;;5.60;99.90;;;;;;4926553;29;20455;-77
2020/12/10 13:11:21;;;;;;;25.43;22.87;;;5.80;99.90;;;;;;4924394;29;20477;-77
2020/12/10 13:13:49;;;;;;;23.93;21.43;;;5.80;99.90;;;;;;4924187;29;20935;-77
2020/12/10 13:16:16;;;;;;;26.50;22.57;;;5.70;99.90;;;;;;4925893;29;21097;-77
2020/12/10 13:18:42;;;;;;;22.83;20.70;;;5.80;99.90;;;;;;4924200;29;20485;-77
2020/12/10 13:21:08;;;;;;;21.20;19.20;;;5.90;99.90;;;;;;4924258;29;20449;-77
2020/12/10 13:23:37;;;;;;;22.73;20.30;;;5.80;99.90;;;;;;4925630;29;20449;-79
2020/12/10 13:26:03;;;;;;;24.67;22.07;;;5.90;99.90;;;;;;4924069;29;20452;-79
2020/12/10 13:28:30;;;;;;;27.20;22.63;;;6.00;99.90;;;;;;4923845;29;20454;-77
2020/12/10 13:30:57;;;;;;;24.70;22.03;;;5.80;99.90;;;;;;4925443;29;20450;-77
2020/12/10 13:33:23;;;;;;;24.97;22.27;;;5.90;99.90;;;;;;4923816;29;20453;-79
2020/12/10 13:35:49;;;;;;;23.23;21.03;;;5.70;99.90;;;;;;4923150;29;20948;-78
2020/12/10 13:38:29;;;;;;;25.40;22.90;;;5.40;99.90;;;;;;4925047;29;20485;-78
2020/12/10 13:40:55;;;;;;;23.40;21.10;;;5.30;99.90;;;;;;4925256;29;20445;-78
2020/12/10 13:43:21;;;;;;;25.17;21.57;;;5.30;99.90;;;;;;4924845;29;20453;-77
2020/12/10 13:45:48;;;;;;;24.60;21.97;;;5.20;99.90;;;;;;4923569;29;20441;-78
2020/12/10 13:48:14;;;;;;;21.53;19.50;;;5.30;99.90;;;;;;4925039;29;20442;-78
2020/12/10 13:50:41;;;;;;;26.20;23.50;;;5.40;99.90;;;;;;4924846;29;20465;-78
2020/12/10 13:53:07;;;;;;;23.37;20.83;;;5.30;99.90;;;;;;4923337;29;20935;-78
2020/12/10 13:55:35;;;;;;;20.90;19.00;;;5.30;99.90;;;;;;4924715;29;20824;-78
2020/12/10 13:58:01;;;;;;;21.07;19.10;;;5.50;99.90;;;;;;4923215;29;20493;-77
2020/12/10 14:00:28;;;;;;;22.30;20.10;;;5.40;99.90;;;;;;4925108;29;20449;-78
2020/12/10 14:02:55;;;;;;;23.67;21.30;;;5.30;99.90;;;;;;4924328;29;20807;-78
2020/12/10 14:05:21;;;;;;;22.60;20.20;;;5.20;99.90;;;;;;4922723;29;20465;-78
2020/12/10 14:07:47;;;;;;;21.30;19.40;;;5.30;99.90;;;;;;4927314;29;20449;-78
2020/12/10 14:10:13;;;;;;;23.27;20.87;;;5.40;99.90;;;;;;4941907;29;20483;-78
2020/12/10 14:12:40;;;;;;;23.97;21.60;;;5.30;99.90;;;;;;4942171;29;20863;-77
2020/12/10 14:15:07;;;;;;;22.43;20.03;;;5.30;99.90;;;;;;4944110;29;20536;-78
2020/12/10 14:17:33;;;;;;;21.10;19.10;;;5.20;99.90;;;;;;4942857;29;20480;-77
2020/12/10 14:20:00;;;;;;;24.47;21.77;;;5.40;99.90;;;;;;4942728;29;20448;-78
2020/12/10 14:22:29;;;;;;;22.63;20.07;;;5.30;99.90;;;;;;4943789;29;20441;-78
2020/12/10 14:24:55;;;;;;;22.23;20.03;;;5.20;99.90;;;;;;4943774;29;20452;-77
2020/12/10 14:27:21;;;;;;;22.90;20.47;;;5.40;99.90;;;;;;4941916;29;20444;-76
2020/12/10 14:29:47;;;;;;;21.83;19.53;;;5.30;99.90;;;;;;4941887;29;20448;-78
2020/12/10 14:32:14;;;;;;;24.20;21.63;;;5.20;99.90;;;;;;4943567;28;20448;-77
2020/12/10 14:34:40;;;;;;;20.17;18.17;;;5.00;99.90;;;;;;4941829;29;20445;-77
2020/12/10 14:37:07;;;;;;;22.47;20.33;;;5.00;99.90;;;;;;4941857;29;20863;-78
2020/12/10 14:39:33;;;;;;;24.63;21.30;;;4.90;99.90;;;;;;4943056;29;20441;-77
2020/12/10 14:41:59;;;;;;;23.33;21.03;;;4.60;99.90;;;;;;4941693;29;20503;-77
2020/12/10 14:44:26;;;;;;;23.03;20.43;;;4.60;99.90;;;;;;4941831;29;20971;-78
2020/12/10 14:46:52;;;;;;;22.60;20.23;;;4.60;99.90;;;;;;4943477;29;20500;-77
2020/12/10 14:49:19;;;;;;;23.17;20.70;;;4.50;99.90;;;;;;4941204;28;20543;-78
2020/12/10 14:51:45;;;;;;;23.43;21.13;;;4.60;99.90;;;;;;4943174;29;20484;-77
2020/12/10 14:54:12;;;;;;;23.13;20.83;;;4.70;99.90;;;;;;4941480;29;20449;-77
2020/12/10 14:56:40;;;;;;;24.67;21.17;;;4.70;99.90;;;;;;4941915;29;20476;-77
2020/12/10 14:59:06;;;;;;;26.20;20.97;;;4.70;99.90;;;;;;4943150;29;20480;-76
2020/12/10 15:01:32;;;;;;;24.33;21.87;;;4.70;99.90;;;;;;4943631;29;20455;-75
2020/12/10 15:03:58;;;;;;;23.77;21.27;;;4.60;99.90;;;;;;4951179;29;20468;-77
2020/12/10 15:06:25;;;;;;;23.73;20.10;;;4.60;99.90;;;;;;4946439;29;20871;-77
2020/12/10 15:08:51;;;;;;;24.50;22.00;;;4.70;99.90;;;;;;4940330;29;20440;-77
2020/12/10 15:11:18;;;;;;;25.80;21.77;;;4.80;99.90;;;;;;4941242;29;20481;-77
2020/12/10 15:13:47;;;;;;;26.57;23.77;;;4.70;99.90;;;;;;4945211;29;20452;-77
2020/12/10 15:16:13;;;;;;;26.13;21.70;;;4.60;99.90;;;;;;4952738;28;20475;-77
2020/12/10 15:18:39;;;;;;;24.17;21.57;;;4.60;99.90;;;;;;4952513;29;20495;-77
2020/12/10 15:21:05;;;;;;;27.00;21.70;;;4.60;99.90;;;;;;4952903;29;20449;-76
2020/12/10 15:23:33;;;;;;;23.23;20.83;;;4.60;99.90;;;;;;4952564;29;20452;-76
2020/12/10 15:25:59;;;;;;;22.70;20.60;;;4.70;99.90;;;;;;4952621;29;20452;-77
2020/12/10 15:28:26;;;;;;;24.47;21.97;;;4.70;99.90;;;;;;4952486;29;20456;-77
2020/12/10 15:30:53;;;;;;;24.00;21.60;;;4.70;99.90;;;;;;4952746;29;20445;-78
2020/12/10 15:33:19;;;;;;;24.30;21.80;;;4.60;99.90;;;;;;4952290;29;20440;-76
2020/12/10 15:35:45;;;;;;;24.63;22.00;;;4.70;99.90;;;;;;4952524;29;20445;-77
2020/12/10 15:38:11;;;;;;;22.73;20.33;;;4.60;99.90;;;;;;4952678;29;20488;-77
2020/12/10 15:40:37;;;;;;;27.00;22.67;;;4.60;99.90;;;;;;4952581;29;20868;-76
2020/12/10 15:43:03;;;;;;;23.20;20.80;;;4.70;99.90;;;;;;4952553;29;20452;-77
2020/12/10 15:45:30;;;;;;;26.50;21.53;;;4.70;99.90;;;;;;4952337;29;20444;-78
2020/12/10 15:47:57;;;;;;;23.27;20.90;;;4.70;99.90;;;;;;4952589;28;20460;-78
2020/12/10 15:50:23;;;;;;;23.50;20.60;;;4.70;99.90;;;;;;4952285;29;20463;-77
2020/12/10 15:52:49;;;;;;;24.37;21.87;;;4.60;99.90;;;;;;4952748;29;20449;-77
2020/12/10 15:55:15;;;;;;;23.13;20.73;;;4.70;99.90;;;;;;4952483;29;20456;-77
2020/12/10 15:57:41;;;;;;;22.90;20.80;;;4.70;99.90;;;;;;4952065;29;20495;-78
2020/12/10 16:00:37;;;;;;;22.83;20.47;;;4.70;99.90;;;;;;4952529;29;20453;-77
2020/12/10 16:03:03;;;;;;;24.07;21.60;;;4.60;99.90;;;;;;4948813;29;20885;-78
2020/12/10 16:05:29;;;;;;;26.40;23.10;;;4.60;99.90;;;;;;4952586;29;20469;-79
2020/12/10 16:07:56;;;;;;;32.07;26.80;;;4.50;99.90;;;;;;4952250;29;20989;-78
2020/12/10 16:10:22;;;;;;;29.83;24.53;;;4.30;99.90;;;;;;4933663;29;20477;-78
2020/12/10 16:12:48;;;;;;;31.80;26.13;;;4.30;99.90;;;;;;4933553;29;20508;-78
2020/12/10 16:15:15;;;;;;;29.40;24.40;;;4.30;99.90;;;;;;4933482;29;20449;-77
2020/12/10 16:17:42;;;;;;;31.87;26.30;;;4.20;99.90;;;;;;4934202;29;21016;-79
2020/12/10 16:20:08;;;;;;;36.10;27.17;;;4.20;99.90;;;;;;4940247;29;20519;-78
2020/12/10 16:22:34;;;;;;;27.30;22.87;;;4.20;99.90;;;;;;4935136;29;20441;-78
2020/12/10 16:25:01;;;;;;;32.60;23.87;;;4.10;99.90;;;;;;4941662;29;20449;-78
2020/12/10 16:27:27;;;;;;;31.80;25.63;;;4.10;99.90;;;;;;4942933;28;20444;-78
2020/12/10 16:29:53;;;;;;;35.63;26.27;;;4.30;99.90;;;;;;4946598;29;20445;-79
2020/12/10 16:32:21;;;;;;;28.17;23.70;;;4.50;99.90;;;;;;4944459;29;20495;-78
2020/12/10 16:34:48;;;;;;;32.20;25.20;;;4.40;99.90;;;;;;4945785;28;20461;-77
2020/12/10 16:37:14;;;;;;;32.13;25.17;;;4.40;99.90;;;;;;4941304;29;20450;-77
2020/12/10 16:39:41;;;;;;;31.07;24.63;;;4.30;99.90;;;;;;4945224;29;20460;-78
2020/12/10 16:42:07;;;;;;;32.97;26.57;;;4.30;99.90;;;;;;4945568;29;20453;-78
2020/12/10 16:44:35;;;;;;;31.80;24.77;;;4.30;99.90;;;;;;4943663;29;20449;-75
2020/12/10 16:47:02;;;;;;;33.37;26.40;;;4.30;99.90;;;;;;4939073;29;20532;-78
2020/12/10 16:49:28;;;;;;;38.00;25.43;;;4.20;99.90;;;;;;4942044;29;20449;-77
2020/12/10 16:51:55;;;;;;;37.67;26.73;;;4.20;99.90;;;;;;4943787;29;20442;-77
2020/12/10 16:54:21;;;;;;;42.57;28.33;;;4.10;99.90;;;;;;4942537;29;20446;-77
2020/12/10 16:56:50;;;;;;;30.90;26.50;;;4.00;99.90;;;;;;4936340;29;20465;-77
2020/12/10 16:59:16;;;;;;;31.20;27.37;;;3.90;99.90;;;;;;4936183;29;20489;-77
2020/12/10 17:01:43;;;;;;;32.50;25.17;;;3.90;99.90;;;;;;4936169;29;20453;-77
2020/12/10 17:04:11;;;;;;;30.10;23.83;;;3.80;99.90;;;;;;4936207;29;20457;-77
2020/12/10 17:06:37;;;;;;;31.97;25.10;;;3.80;99.90;;;;;;4936166;29;20560;-77
2020/12/10 17:09:04;;;;;;;33.53;25.87;;;3.80;99.90;;;;;;4936011;29;20937;-77
2020/12/10 17:11:30;;;;;;;32.43;25.07;;;3.90;99.90;;;;;;4935919;29;20925;-77
2020/12/10 17:13:57;;;;;;;32.63;26.43;;;3.90;99.90;;;;;;4935953;29;21034;-78
2020/12/10 17:16:23;;;;;;;33.60;26.80;;;3.80;99.90;;;;;;4936155;29;20449;-79
2020/12/10 17:18:49;;;;;;;33.70;26.67;;;3.80;99.90;;;;;;4935513;29;20536;-79
2020/12/10 17:21:19;;;;;;;34.27;24.87;;;3.80;99.90;;;;;;4936088;29;20449;-78
2020/12/10 17:23:45;;;;;;;37.10;28.23;;;3.80;99.90;;;;;;4935978;29;20544;-78
2020/12/10 17:26:12;;;;;;;41.27;27.27;;;3.70;99.90;;;;;;4935970;29;20916;-77
2020/12/10 17:28:38;;;;;;;34.40;27.70;;;3.80;99.90;;;;;;4935942;29;20948;-78
2020/12/10 17:31:05;;;;;;;40.53;26.70;;;3.70;99.90;;;;;;4935763;29;20860;-77
2020/12/10 17:33:31;;;;;;;30.93;25.37;;;3.70;99.90;;;;;;4935711;29;20509;-78
2020/12/10 17:35:57;;;;;;;37.63;27.63;;;3.60;99.90;;;;;;4935534;29;20452;-78
2020/12/10 17:38:23;;;;;;;32.30;27.23;;;3.70;99.90;;;;;;4934643;29;20548;-78
2020/12/10 17:40:50;;;;;;;32.87;25.77;;;3.70;99.90;;;;;;4935715;29;20457;-77
2020/12/10 17:43:17;;;;;;;33.67;26.23;;;3.80;99.90;;;;;;4935618;29;20453;-77
2020/12/10 17:45:43;;;;;;;35.80;27.40;;;3.80;99.90;;;;;;4935654;29;20458;-77
2020/12/10 17:48:09;;;;;;;33.10;26.13;;;3.80;99.90;;;;;;4935574;29;20441;-78
2020/12/10 17:50:36;;;;;;;32.33;24.07;;;3.80;99.90;;;;;;4935588;29;20823;-77
2020/12/10 17:53:02;;;;;;;34.33;25.43;;;3.80;99.90;;;;;;4935641;29;20497;-77
2020/12/10 17:55:28;;;;;;;36.83;26.43;;;3.70;99.90;;;;;;4935517;29;20504;-77
2020/12/10 17:57:54;;;;;;;33.80;28.37;;;3.70;99.90;;;;;;4940064;29;20489;-77
2020/12/10 18:00:21;;;;;;;33.73;26.83;;;3.70;99.90;;;;;;4942423;29;20446;-78
2020/12/10 18:02:49;;;;;;;36.40;28.10;;;3.80;99.90;;;;;;4935785;29;21008;-78
2020/12/10 18:05:15;;;;;;;35.83;25.83;;;3.80;99.90;;;;;;4935015;29;20465;-77
2020/12/10 18:07:43;;;;;;;33.40;26.73;;;3.80;99.90;;;;;;4934931;29;20453;-77
2020/12/10 18:10:10;;;;;;;35.53;28.17;;;3.70;99.90;;;;;;4934586;29;20481;-79
2020/12/10 18:12:37;;;;;;;36.17;26.90;;;3.80;99.90;;;;;;4934583;29;20543;-77
2020/12/10 18:15:04;;;;;;;29.73;25.37;;;3.80;99.90;;;;;;4934723;29;20454;-78
2020/12/10 18:17:31;;;;;;;29.93;26.03;;;3.70;99.90;;;;;;4934376;29;21103;-77
2020/12/10 18:19:57;;;;;;;39.93;28.07;;;3.70;99.90;;;;;;4934167;29;20446;-79
2020/12/10 18:22:23;;;;;;;42.53;29.77;;;3.70;99.90;;;;;;4934378;29;20453;-77
2020/12/10 18:24:49;;;;;;;33.37;27.47;;;3.70;99.90;;;;;;4934530;29;20449;-78
2020/12/10 18:27:16;;;;;;;33.10;25.60;;;3.70;99.90;;;;;;4934161;29;20477;-79
2020/12/10 18:29:42;;;;;;;33.67;27.27;;;3.80;99.90;;;;;;4934418;29;20501;-78
2020/12/10 18:32:08;;;;;;;36.67;28.73;;;3.80;99.90;;;;;;4934420;29;20453;-80
2020/12/10 18:34:35;;;;;;;35.00;27.33;;;3.80;99.90;;;;;;4934069;29;20454;-80
2020/12/10 18:37:01;;;;;;;32.17;26.20;;;3.80;99.90;;;;;;4934186;29;20457;-80
2020/12/10 18:39:27;;;;;;;33.60;28.43;;;3.80;99.90;;;;;;4933898;29;20482;-79
2020/12/10 18:41:54;;;;;;;31.20;26.07;;;3.80;99.90;;;;;;4934528;29;20454;-79
2020/12/10 18:44:21;;;;;;;33.73;25.07;;;4.00;99.90;;;;;;4934666;29;21023;-79
2020/12/10 18:46:47;;;;;;;33.00;24.80;;;4.10;99.90;;;;;;4934403;29;20445;-80
2020/12/10 18:49:13;;;;;;;32.20;26.13;;;4.30;99.90;;;;;;4933650;29;20504;-79
2020/12/10 18:51:40;;;;;;;30.53;25.57;;;4.20;99.90;;;;;;4933859;29;20457;-79